sensor_id;sensor_type;location;lat;lon;timestamp;temperature;humidity
6843;DHT22;3460;52.028;8.916;2023-08-30T00:02:11;12.00;99.90
6843;DHT22;3460;52.028;8.916;2023-08-30T00:04:38;12.00;99.90
6843;DHT22;3460;52.028;8.916;2023-08-30T00:07:05;12.00;99.90
6843;DHT22;3460;52.028;8.916;2023-08-30T00:09:31;12.00;99.90
6843;DHT22;3460;52.028;8.916;2023-08-30T00:11:59;11.90;99.90
6843;DHT22;3460;52.028;8.916;2023-08-30T00:14:26;11.90;99.90
6843;DHT22;3460;52.028;8.916;2023-08-30T00:16:53;11.90;99.90
6843;DHT22;3460;52.028;8.916;2023-08-30T00:19:20;11.80;99.90
6843;DHT22;3460;52.028;8.916;2023-08-30T00:21:47;11.80;99.90
6843;DHT22;3460;52.028;8.916;2023-08-30T00:24:14;11.70;99.90
6843;DHT22;3460;52.028;8.916;2023-08-30T00:26:40;11.70;99.90
6843;DHT22;3460;52.028;8.916;2023-08-30T00:29:08;11.60;99.90
6843;DHT22;3460;52.028;8.916;2023-08-30T00:31:35;11.60;99.90
6843;DHT22;3460;52.028;8.916;2023-08-30T00:34:02;11.60;99.90
6843;DHT22;3460;52.028;8.916;2023-08-30T00:36:29;11.60;99.90
6843;DHT22;3460;52.028;8.916;2023-08-30T00:38:56;11.60;99.90
6843;DHT22;3460;52.028;8.916;2023-08-30T00:41:22;11.60;99.90
6843;DHT22;3460;52.028;8.916;2023-08-30T00:43:49;11.60;99.90
6843;DHT22;3460;52.028;8.916;2023-08-30T00:46:17;11.60;99.90
6843;DHT22;3460;52.028;8.916;2023-08-30T00:48:45;11.60;99.90
6843;DHT22;3460;52.028;8.916;2023-08-30T00:51:12;11.60;99.90
6843;DHT22;3460;52.028;8.916;2023-08-30T00:53:39;11.70;99.90
6843;DHT22;3460;52.028;8.916;2023-08-30T00:56:06;11.70;99.90
6843;DHT22;3460;52.028;8.916;2023-08-30T00:58:33;11.70;99.90
6843;DHT22;3460;52.028;8.916;2023-08-30T01:01:00;11.70;99.90
6843;DHT22;3460;52.028;8.916;2023-08-30T01:03:28;11.70;99.90
6843;DHT22;3460;52.028;8.916;2023-08-30T01:05:56;11.70;99.90
6843;DHT22;3460;52.028;8.916;2023-08-30T01:08:22;11.60;99.90
6843;DHT22;3460;52.028;8.916;2023-08-30T01:10:58;11.50;99.90
6843;DHT22;3460;52.028;8.916;2023-08-30T01:13:27;11.50;99.90
6843;DHT22;3460;52.028;8.916;2023-08-30T01:15:56;11.40;99.90
6843;DHT22;3460;52.028;8.916;2023-08-30T01:18:27;11.40;99.90
6843;DHT22;3460;52.028;8.916;2023-08-30T01:20:57;11.40;99.90
6843;DHT22;3460;52.028;8.916;2023-08-30T01:23:33;11.50;99.90
6843;DHT22;3460;52.028;8.916;2023-08-30T01:26:08;11.50;99.90
6843;DHT22;3460;52.028;8.916;2023-08-30T01:28:38;11.60;99.90
6843;DHT22;3460;52.028;8.916;2023-08-30T01:31:06;11.60;99.90
6843;DHT22;3460;52.028;8.916;2023-08-30T01:33:34;11.70;99.90
6843;DHT22;3460;52.028;8.916;2023-08-30T01:36:03;11.70;99.90
6843;DHT22;3460;52.028;8.916;2023-08-30T01:38:32;11.80;99.90
6843;DHT22;3460;52.028;8.916;2023-08-30T01:40:59;11.80;99.90
6843;DHT22;3460;52.028;8.916;2023-08-30T01:43:27;11.80;99.90
6843;DHT22;3460;52.028;8.916;2023-08-30T01:45:57;11.90;99.90
6843;DHT22;3460;52.028;8.916;2023-08-30T01:48:26;11.90;99.90
6843;DHT22;3460;52.028;8.916;2023-08-30T01:50:54;12.00;99.90
6843;DHT22;3460;52.028;8.916;2023-08-30T01:53:24;12.00;99.90
6843;DHT22;3460;52.028;8.916;2023-08-30T01:55:51;12.00;99.90
6843;DHT22;3460;52.028;8.916;2023-08-30T01:58:18;12.00;99.90
6843;DHT22;3460;52.028;8.916;2023-08-30T02:00:45;12.00;99.90
6843;DHT22;3460;52.028;8.916;2023-08-30T02:03:14;12.00;99.90
6843;DHT22;3460;52.028;8.916;2023-08-30T02:05:48;12.10;99.90
6843;DHT22;3460;52.028;8.916;2023-08-30T02:08:17;12.10;99.90
6843;DHT22;3460;52.028;8.916;2023-08-30T02:10:48;12.10;99.90
6843;DHT22;3460;52.028;8.916;2023-08-30T02:13:19;12.10;99.90
6843;DHT22;3460;52.028;8.916;2023-08-30T02:15:48;12.10;99.90
6843;DHT22;3460;52.028;8.916;2023-08-30T02:18:17;12.10;99.90
6843;DHT22;3460;52.028;8.916;2023-08-30T02:20:46;12.10;99.90
6843;DHT22;3460;52.028;8.916;2023-08-30T02:23:13;12.10;99.90
6843;DHT22;3460;52.028;8.916;2023-08-30T02:25:39;12.00;99.90
6843;DHT22;3460;52.028;8.916;2023-08-30T02:28:06;12.00;99.90
6843;DHT22;3460;52.028;8.916;2023-08-30T02:30:33;11.90;99.90
6843;DHT22;3460;52.028;8.916;2023-08-30T02:33:00;11.90;99.90
6843;DHT22;3460;52.028;8.916;2023-08-30T02:35:28;11.80;99.90
6843;DHT22;3460;52.028;8.916;2023-08-30T02:37:55;11.80;99.90
6843;DHT22;3460;52.028;8.916;2023-08-30T02:40:22;11.80;99.90
6843;DHT22;3460;52.028;8.916;2023-08-30T02:42:49;11.90;99.90
6843;DHT22;3460;52.028;8.916;2023-08-30T02:45:15;11.80;99.90
6843;DHT22;3460;52.028;8.916;2023-08-30T02:47:44;11.80;99.90
6843;DHT22;3460;52.028;8.916;2023-08-30T02:50:10;11.80;99.90
6843;DHT22;3460;52.028;8.916;2023-08-30T02:52:39;11.80;99.90
6843;DHT22;3460;52.028;8.916;2023-08-30T02:55:06;11.80;99.90
6843;DHT22;3460;52.028;8.916;2023-08-30T02:57:33;11.80;99.90
6843;DHT22;3460;52.028;8.916;2023-08-30T03:00:00;11.90;99.90
6843;DHT22;3460;52.028;8.916;2023-08-30T03:02:27;11.90;99.90
6843;DHT22;3460;52.028;8.916;2023-08-30T03:04:54;12.00;99.90
6843;DHT22;3460;52.028;8.916;2023-08-30T03:07:21;12.10;99.90
6843;DHT22;3460;52.028;8.916;2023-08-30T03:09:53;12.10;99.90
6843;DHT22;3460;52.028;8.916;2023-08-30T03:12:20;12.20;99.90
6843;DHT22;3460;52.028;8.916;2023-08-30T03:14:47;12.20;99.90
6843;DHT22;3460;52.028;8.916;2023-08-30T03:17:13;12.20;99.90
6843;DHT22;3460;52.028;8.916;2023-08-30T03:19:40;12.20;99.90
6843;DHT22;3460;52.028;8.916;2023-08-30T03:22:07;12.20;99.90
6843;DHT22;3460;52.028;8.916;2023-08-30T03:24:34;12.20;99.90
6843;DHT22;3460;52.028;8.916;2023-08-30T03:27:03;12.20;99.90
6843;DHT22;3460;52.028;8.916;2023-08-30T03:29:29;12.20;99.90
6843;DHT22;3460;52.028;8.916;2023-08-30T03:31:56;12.20;99.90
6843;DHT22;3460;52.028;8.916;2023-08-30T03:34:23;12.30;99.90
6843;DHT22;3460;52.028;8.916;2023-08-30T03:36:50;12.30;99.90
6843;DHT22;3460;52.028;8.916;2023-08-30T03:39:19;12.30;99.90
6843;DHT22;3460;52.028;8.916;2023-08-30T03:41:46;12.20;99.90
6843;DHT22;3460;52.028;8.916;2023-08-30T03:44:14;12.30;99.90
6843;DHT22;3460;52.028;8.916;2023-08-30T03:46:41;12.30;99.90
6843;DHT22;3460;52.028;8.916;2023-08-30T03:49:08;12.20;99.90
6843;DHT22;3460;52.028;8.916;2023-08-30T03:51:35;12.20;99.90
6843;DHT22;3460;52.028;8.916;2023-08-30T03:54:02;12.30;99.90
6843;DHT22;3460;52.028;8.916;2023-08-30T03:56:29;12.30;99.90
6843;DHT22;3460;52.028;8.916;2023-08-30T03:58:56;12.30;99.90
6843;DHT22;3460;52.028;8.916;2023-08-30T04:01:24;12.30;99.90
6843;DHT22;3460;52.028;8.916;2023-08-30T04:03:51;12.30;99.90
6843;DHT22;3460;52.028;8.916;2023-08-30T04:06:17;12.30;99.90
6843;DHT22;3460;52.028;8.916;2023-08-30T04:08:44;12.30;99.90
6843;DHT22;3460;52.028;8.916;2023-08-30T04:11:11;12.30;99.90
6843;DHT22;3460;52.028;8.916;2023-08-30T04:13:38;12.40;99.90
6843;DHT22;3460;52.028;8.916;2023-08-30T04:16:05;12.30;99.90
6843;DHT22;3460;52.028;8.916;2023-08-30T04:18:33;12.40;99.90
6843;DHT22;3460;52.028;8.916;2023-08-30T04:21:00;12.30;99.90
6843;DHT22;3460;52.028;8.916;2023-08-30T04:23:28;12.30;99.90
6843;DHT22;3460;52.028;8.916;2023-08-30T04:25:55;12.20;99.90
6843;DHT22;3460;52.028;8.916;2023-08-30T04:28:21;12.20;99.90
6843;DHT22;3460;52.028;8.916;2023-08-30T04:30:48;12.20;99.90
6843;DHT22;3460;52.028;8.916;2023-08-30T04:33:15;12.20;99.90
6843;DHT22;3460;52.028;8.916;2023-08-30T04:35:43;12.20;99.90
6843;DHT22;3460;52.028;8.916;2023-08-30T04:38:10;12.20;99.90
6843;DHT22;3460;52.028;8.916;2023-08-30T04:40:37;12.20;99.90
6843;DHT22;3460;52.028;8.916;2023-08-30T04:43:04;12.20;99.90
6843;DHT22;3460;52.028;8.916;2023-08-30T04:45:31;12.30;99.90
6843;DHT22;3460;52.028;8.916;2023-08-30T04:47:57;12.30;99.90
6843;DHT22;3460;52.028;8.916;2023-08-30T04:50:24;12.30;99.90
6843;DHT22;3460;52.028;8.916;2023-08-30T04:52:52;12.30;99.90
6843;DHT22;3460;52.028;8.916;2023-08-30T04:55:19;12.30;99.90
6843;DHT22;3460;52.028;8.916;2023-08-30T04:57:46;12.30;99.90
6843;DHT22;3460;52.028;8.916;2023-08-30T05:00:14;12.40;99.90
6843;DHT22;3460;52.028;8.916;2023-08-30T05:02:40;12.40;99.90
6843;DHT22;3460;52.028;8.916;2023-08-30T05:05:09;12.40;99.90
6843;DHT22;3460;52.028;8.916;2023-08-30T05:07:36;12.40;99.90
6843;DHT22;3460;52.028;8.916;2023-08-30T05:10:05;12.40;99.90
6843;DHT22;3460;52.028;8.916;2023-08-30T05:12:33;12.40;99.90
6843;DHT22;3460;52.028;8.916;2023-08-30T05:15:00;12.40;99.90
6843;DHT22;3460;52.028;8.916;2023-08-30T05:17:29;12.40;99.90
6843;DHT22;3460;52.028;8.916;2023-08-30T05:19:56;12.40;99.90
6843;DHT22;3460;52.028;8.916;2023-08-30T05:22:23;12.40;99.90
6843;DHT22;3460;52.028;8.916;2023-08-30T05:24:50;12.40;99.90
6843;DHT22;3460;52.028;8.916;2023-08-30T05:27:18;12.30;99.90
6843;DHT22;3460;52.028;8.916;2023-08-30T05:29:45;12.30;99.90
6843;DHT22;3460;52.028;8.916;2023-08-30T05:32:12;12.30;99.90
6843;DHT22;3460;52.028;8.916;2023-08-30T05:34:38;12.40;99.90
6843;DHT22;3460;52.028;8.916;2023-08-30T05:37:05;12.40;99.90
6843;DHT22;3460;52.028;8.916;2023-08-30T05:39:32;12.40;99.90
6843;DHT22;3460;52.028;8.916;2023-08-30T05:41:59;12.50;99.90
6843;DHT22;3460;52.028;8.916;2023-08-30T05:44:27;12.50;99.90
6843;DHT22;3460;52.028;8.916;2023-08-30T05:46:54;12.50;99.90
6843;DHT22;3460;52.028;8.916;2023-08-30T05:49:21;12.50;99.90
6843;DHT22;3460;52.028;8.916;2023-08-30T05:51:48;12.40;99.90
6843;DHT22;3460;52.028;8.916;2023-08-30T05:54:15;12.40;99.90
6843;DHT22;3460;52.028;8.916;2023-08-30T05:56:42;12.40;99.90
6843;DHT22;3460;52.028;8.916;2023-08-30T05:59:09;12.30;99.90
6843;DHT22;3460;52.028;8.916;2023-08-30T06:01:37;12.40;99.90
6843;DHT22;3460;52.028;8.916;2023-08-30T06:04:04;12.40;99.90
6843;DHT22;3460;52.028;8.916;2023-08-30T06:06:31;12.40;99.90
6843;DHT22;3460;52.028;8.916;2023-08-30T06:08:58;12.50;99.90
6843;DHT22;3460;52.028;8.916;2023-08-30T06:11:25;12.50;99.90
6843;DHT22;3460;52.028;8.916;2023-08-30T06:13:52;12.50;99.90
6843;DHT22;3460;52.028;8.916;2023-08-30T06:16:19;12.60;99.90
6843;DHT22;3460;52.028;8.916;2023-08-30T06:18:47;12.60;99.90
6843;DHT22;3460;52.028;8.916;2023-08-30T06:21:14;12.70;99.90
6843;DHT22;3460;52.028;8.916;2023-08-30T06:23:40;12.60;99.90
6843;DHT22;3460;52.028;8.916;2023-08-30T06:26:07;12.70;99.90
6843;DHT22;3460;52.028;8.916;2023-08-30T06:28:34;12.70;99.90
6843;DHT22;3460;52.028;8.916;2023-08-30T06:31:01;12.80;99.90
6843;DHT22;3460;52.028;8.916;2023-08-30T06:33:28;12.70;99.90
6843;DHT22;3460;52.028;8.916;2023-08-30T06:35:56;12.80;99.90
6843;DHT22;3460;52.028;8.916;2023-08-30T06:38:23;12.80;99.90
6843;DHT22;3460;52.028;8.916;2023-08-30T06:40:49;12.90;99.90
6843;DHT22;3460;52.028;8.916;2023-08-30T06:43:16;12.90;99.90
6843;DHT22;3460;52.028;8.916;2023-08-30T06:45:44;13.00;99.90
6843;DHT22;3460;52.028;8.916;2023-08-30T06:48:11;13.10;99.90
6843;DHT22;3460;52.028;8.916;2023-08-30T06:50:38;13.10;99.90
6843;DHT22;3460;52.028;8.916;2023-08-30T06:53:06;13.20;99.90
6843;DHT22;3460;52.028;8.916;2023-08-30T06:55:34;13.20;99.90
6843;DHT22;3460;52.028;8.916;2023-08-30T06:58:02;13.30;99.90
6843;DHT22;3460;52.028;8.916;2023-08-30T07:00:29;13.30;99.90
6843;DHT22;3460;52.028;8.916;2023-08-30T07:02:56;13.30;99.90
6843;DHT22;3460;52.028;8.916;2023-08-30T07:05:23;13.20;99.90
6843;DHT22;3460;52.028;8.916;2023-08-30T07:07:50;13.30;99.90
6843;DHT22;3460;52.028;8.916;2023-08-30T07:10:18;13.40;99.90
6843;DHT22;3460;52.028;8.916;2023-08-30T07:12:45;13.40;99.90
6843;DHT22;3460;52.028;8.916;2023-08-30T07:15:14;13.50;99.90
6843;DHT22;3460;52.028;8.916;2023-08-30T07:17:42;13.50;99.90
6843;DHT22;3460;52.028;8.916;2023-08-30T07:20:10;13.60;99.90
6843;DHT22;3460;52.028;8.916;2023-08-30T07:22:36;13.60;99.90
6843;DHT22;3460;52.028;8.916;2023-08-30T07:25:04;13.70;99.90
6843;DHT22;3460;52.028;8.916;2023-08-30T07:27:32;13.70;99.90
6843;DHT22;3460;52.028;8.916;2023-08-30T07:29:59;13.80;99.90
6843;DHT22;3460;52.028;8.916;2023-08-30T07:32:26;13.80;99.90
6843;DHT22;3460;52.028;8.916;2023-08-30T07:34:53;13.80;99.90
6843;DHT22;3460;52.028;8.916;2023-08-30T07:37:20;13.90;99.90
6843;DHT22;3460;52.028;8.916;2023-08-30T07:39:47;14.00;99.90
6843;DHT22;3460;52.028;8.916;2023-08-30T07:42:14;14.10;99.90
6843;DHT22;3460;52.028;8.916;2023-08-30T07:44:43;14.20;99.90
6843;DHT22;3460;52.028;8.916;2023-08-30T07:47:09;14.30;99.90
6843;DHT22;3460;52.028;8.916;2023-08-30T07:49:36;14.40;99.90
6843;DHT22;3460;52.028;8.916;2023-08-30T07:52:04;14.60;99.90
6843;DHT22;3460;52.028;8.916;2023-08-30T07:54:31;14.80;99.90
6843;DHT22;3460;52.028;8.916;2023-08-30T07:56:57;14.90;99.90
6843;DHT22;3460;52.028;8.916;2023-08-30T07:59:24;15.10;99.90
6843;DHT22;3460;52.028;8.916;2023-08-30T08:01:52;15.10;99.90
6843;DHT22;3460;52.028;8.916;2023-08-30T08:04:19;15.20;99.90
6843;DHT22;3460;52.028;8.916;2023-08-30T08:06:46;15.30;99.90
6843;DHT22;3460;52.028;8.916;2023-08-30T08:09:13;15.40;99.90
6843;DHT22;3460;52.028;8.916;2023-08-30T08:11:40;15.50;99.90
6843;DHT22;3460;52.028;8.916;2023-08-30T08:14:09;15.60;99.90
6843;DHT22;3460;52.028;8.916;2023-08-30T08:16:36;15.70;99.90
6843;DHT22;3460;52.028;8.916;2023-08-30T08:19:05;15.80;99.90
6843;DHT22;3460;52.028;8.916;2023-08-30T08:21:32;16.00;99.90
6843;DHT22;3460;52.028;8.916;2023-08-30T08:23:59;16.00;99.90
6843;DHT22;3460;52.028;8.916;2023-08-30T08:26:26;16.10;99.90
6843;DHT22;3460;52.028;8.916;2023-08-30T08:28:54;16.20;99.90
6843;DHT22;3460;52.028;8.916;2023-08-30T08:31:21;16.30;99.90
6843;DHT22;3460;52.028;8.916;2023-08-30T08:33:51;16.40;99.90
6843;DHT22;3460;52.028;8.916;2023-08-30T08:36:19;16.60;99.90
6843;DHT22;3460;52.028;8.916;2023-08-30T08:38:46;16.70;99.90
6843;DHT22;3460;52.028;8.916;2023-08-30T08:41:14;16.50;99.90
6843;DHT22;3460;52.028;8.916;2023-08-30T08:43:42;16.30;99.90
6843;DHT22;3460;52.028;8.916;2023-08-30T08:46:10;16.50;99.90
6843;DHT22;3460;52.028;8.916;2023-08-30T08:48:40;16.60;99.90
6843;DHT22;3460;52.028;8.916;2023-08-30T08:51:07;16.70;99.90
6843;DHT22;3460;52.028;8.916;2023-08-30T08:53:36;16.50;99.90
6843;DHT22;3460;52.028;8.916;2023-08-30T08:56:04;16.60;99.90
6843;DHT22;3460;52.028;8.916;2023-08-30T08:58:35;16.70;99.90
6843;DHT22;3460;52.028;8.916;2023-08-30T09:01:04;16.90;99.90
6843;DHT22;3460;52.028;8.916;2023-08-30T09:03:33;17.00;99.90
6843;DHT22;3460;52.028;8.916;2023-08-30T09:06:02;16.90;99.90
6843;DHT22;3460;52.028;8.916;2023-08-30T09:08:29;16.90;99.90
6843;DHT22;3460;52.028;8.916;2023-08-30T09:10:57;17.10;99.90
6843;DHT22;3460;52.028;8.916;2023-08-30T09:13:24;17.30;99.90
6843;DHT22;3460;52.028;8.916;2023-08-30T09:15:51;17.30;99.90
6843;DHT22;3460;52.028;8.916;2023-08-30T09:18:18;17.20;99.90
6843;DHT22;3460;52.028;8.916;2023-08-30T09:20:45;17.30;99.90
6843;DHT22;3460;52.028;8.916;2023-08-30T09:23:18;17.40;99.90
6843;DHT22;3460;52.028;8.916;2023-08-30T09:25:47;17.40;99.90
6843;DHT22;3460;52.028;8.916;2023-08-30T09:28:15;17.30;99.90
6843;DHT22;3460;52.028;8.916;2023-08-30T09:30:42;17.40;99.90
6843;DHT22;3460;52.028;8.916;2023-08-30T09:33:08;17.50;99.90
6843;DHT22;3460;52.028;8.916;2023-08-30T09:35:43;17.60;99.90
6843;DHT22;3460;52.028;8.916;2023-08-30T09:38:16;17.70;99.90
6843;DHT22;3460;52.028;8.916;2023-08-30T09:40:44;18.00;99.90
6843;DHT22;3460;52.028;8.916;2023-08-30T09:43:11;18.30;99.90
6843;DHT22;3460;52.028;8.916;2023-08-30T09:45:39;18.30;99.90
6843;DHT22;3460;52.028;8.916;2023-08-30T09:48:07;18.30;99.90
6843;DHT22;3460;52.028;8.916;2023-08-30T09:50:35;18.50;99.90
6843;DHT22;3460;52.028;8.916;2023-08-30T09:53:06;18.60;99.90
6843;DHT22;3460;52.028;8.916;2023-08-30T09:55:34;18.60;99.90
6843;DHT22;3460;52.028;8.916;2023-08-30T09:58:02;18.60;99.90
6843;DHT22;3460;52.028;8.916;2023-08-30T10:00:29;18.60;99.90
6843;DHT22;3460;52.028;8.916;2023-08-30T10:02:59;18.50;99.90
6843;DHT22;3460;52.028;8.916;2023-08-30T10:05:27;18.50;99.90
6843;DHT22;3460;52.028;8.916;2023-08-30T10:07:54;18.40;99.90
6843;DHT22;3460;52.028;8.916;2023-08-30T10:10:22;18.40;99.90
6843;DHT22;3460;52.028;8.916;2023-08-30T10:12:50;18.40;99.90
6843;DHT22;3460;52.028;8.916;2023-08-30T10:15:20;18.40;99.90
6843;DHT22;3460;52.028;8.916;2023-08-30T10:17:49;18.60;99.90
6843;DHT22;3460;52.028;8.916;2023-08-30T10:20:20;18.60;99.90
6843;DHT22;3460;52.028;8.916;2023-08-30T10:22:47;18.80;99.90
6843;DHT22;3460;52.028;8.916;2023-08-30T10:25:19;18.90;99.90
6843;DHT22;3460;52.028;8.916;2023-08-30T10:27:49;18.90;99.90
6843;DHT22;3460;52.028;8.916;2023-08-30T10:30:18;18.90;99.90
6843;DHT22;3460;52.028;8.916;2023-08-30T10:32:46;18.90;99.90
6843;DHT22;3460;52.028;8.916;2023-08-30T10:35:13;18.90;99.90
6843;DHT22;3460;52.028;8.916;2023-08-30T10:37:42;19.00;99.90
6843;DHT22;3460;52.028;8.916;2023-08-30T10:40:09;19.20;1.00
6843;DHT22;3460;52.028;8.916;2023-08-30T10:42:36;19.30;99.90
6843;DHT22;3460;52.028;8.916;2023-08-30T10:45:05;19.50;99.90
6843;DHT22;3460;52.028;8.916;2023-08-30T10:47:34;19.50;99.90
6843;DHT22;3460;52.028;8.916;2023-08-30T10:50:05;19.50;99.90
6843;DHT22;3460;52.028;8.916;2023-08-30T10:52:32;19.50;99.90
6843;DHT22;3460;52.028;8.916;2023-08-30T10:55:07;19.30;99.90
6843;DHT22;3460;52.028;8.916;2023-08-30T10:57:34;19.30;99.90
6843;DHT22;3460;52.028;8.916;2023-08-30T11:00:08;19.40;99.90
6843;DHT22;3460;52.028;8.916;2023-08-30T11:02:36;19.30;99.90
6843;DHT22;3460;52.028;8.916;2023-08-30T11:05:06;19.20;99.90
6843;DHT22;3460;52.028;8.916;2023-08-30T11:07:32;19.00;99.90
6843;DHT22;3460;52.028;8.916;2023-08-30T11:09:59;18.90;99.90
6843;DHT22;3460;52.028;8.916;2023-08-30T11:12:28;18.90;99.90
6843;DHT22;3460;52.028;8.916;2023-08-30T11:14:56;18.80;99.90
6843;DHT22;3460;52.028;8.916;2023-08-30T11:17:23;19.00;99.90
6843;DHT22;3460;52.028;8.916;2023-08-30T11:19:50;19.20;99.90
6843;DHT22;3460;52.028;8.916;2023-08-30T11:22:18;19.50;99.90
6843;DHT22;3460;52.028;8.916;2023-08-30T11:24:47;19.50;99.90
6843;DHT22;3460;52.028;8.916;2023-08-30T11:27:16;19.50;99.90
6843;DHT22;3460;52.028;8.916;2023-08-30T11:29:45;19.60;99.90
6843;DHT22;3460;52.028;8.916;2023-08-30T11:32:11;19.70;99.90
6843;DHT22;3460;52.028;8.916;2023-08-30T11:34:38;19.90;99.90
6843;DHT22;3460;52.028;8.916;2023-08-30T11:37:05;19.90;99.90
6843;DHT22;3460;52.028;8.916;2023-08-30T11:39:32;20.00;99.90
6843;DHT22;3460;52.028;8.916;2023-08-30T11:41:59;20.10;99.90
6843;DHT22;3460;52.028;8.916;2023-08-30T11:44:28;20.20;99.90
6843;DHT22;3460;52.028;8.916;2023-08-30T11:46:59;20.00;99.90
6843;DHT22;3460;52.028;8.916;2023-08-30T11:49:27;20.00;99.90
6843;DHT22;3460;52.028;8.916;2023-08-30T11:51:55;19.90;99.90
6843;DHT22;3460;52.028;8.916;2023-08-30T11:54:24;19.80;99.90
6843;DHT22;3460;52.028;8.916;2023-08-30T11:56:51;19.80;99.90
6843;DHT22;3460;52.028;8.916;2023-08-30T11:59:18;19.80;99.90
6843;DHT22;3460;52.028;8.916;2023-08-30T12:01:46;19.90;99.90
6843;DHT22;3460;52.028;8.916;2023-08-30T12:04:14;19.90;99.90
6843;DHT22;3460;52.028;8.916;2023-08-30T12:06:44;20.00;99.90
6843;DHT22;3460;52.028;8.916;2023-08-30T12:09:13;20.00;99.90
6843;DHT22;3460;52.028;8.916;2023-08-30T12:11:40;20.00;99.90
6843;DHT22;3460;52.028;8.916;2023-08-30T12:14:07;20.00;99.90
6843;DHT22;3460;52.028;8.916;2023-08-30T12:16:34;19.90;99.90
6843;DHT22;3460;52.028;8.916;2023-08-30T12:19:07;20.20;99.90
6843;DHT22;3460;52.028;8.916;2023-08-30T12:21:41;20.30;99.90
6843;DHT22;3460;52.028;8.916;2023-08-30T12:24:08;20.20;99.90
6843;DHT22;3460;52.028;8.916;2023-08-30T12:26:35;20.20;99.90
6843;DHT22;3460;52.028;8.916;2023-08-30T12:29:03;20.20;99.90
6843;DHT22;3460;52.028;8.916;2023-08-30T12:31:31;20.20;99.90
6843;DHT22;3460;52.028;8.916;2023-08-30T12:33:57;20.30;99.90
6843;DHT22;3460;52.028;8.916;2023-08-30T12:36:24;20.30;99.90
6843;DHT22;3460;52.028;8.916;2023-08-30T12:38:52;20.30;99.90
6843;DHT22;3460;52.028;8.916;2023-08-30T12:41:19;20.20;99.90
6843;DHT22;3460;52.028;8.916;2023-08-30T12:43:48;20.20;99.90
6843;DHT22;3460;52.028;8.916;2023-08-30T12:46:15;20.20;99.90
6843;DHT22;3460;52.028;8.916;2023-08-30T12:48:42;20.20;99.90
6843;DHT22;3460;52.028;8.916;2023-08-30T12:51:09;20.10;99.90
6843;DHT22;3460;52.028;8.916;2023-08-30T12:53:35;20.10;99.90
6843;DHT22;3460;52.028;8.916;2023-08-30T12:56:04;20.10;99.90
6843;DHT22;3460;52.028;8.916;2023-08-30T12:58:31;20.10;99.90
6843;DHT22;3460;52.028;8.916;2023-08-30T13:00:58;20.10;99.90
6843;DHT22;3460;52.028;8.916;2023-08-30T13:03:24;20.10;99.90
6843;DHT22;3460;52.028;8.916;2023-08-30T13:05:51;20.20;99.90
6843;DHT22;3460;52.028;8.916;2023-08-30T13:08:18;20.10;99.90
6843;DHT22;3460;52.028;8.916;2023-08-30T13:10:45;19.90;99.90
6843;DHT22;3460;52.028;8.916;2023-08-30T13:13:13;19.90;27.10
6843;DHT22;3460;52.028;8.916;2023-08-30T13:15:40;19.80;99.90
6843;DHT22;3460;52.028;8.916;2023-08-30T13:18:07;19.70;99.90
6843;DHT22;3460;52.028;8.916;2023-08-30T13:20:38;19.60;99.90
6843;DHT22;3460;52.028;8.916;2023-08-30T13:23:04;19.40;99.90
6843;DHT22;3460;52.028;8.916;2023-08-30T13:25:31;19.30;99.90
6843;DHT22;3460;52.028;8.916;2023-08-30T13:27:58;19.10;99.90
6843;DHT22;3460;52.028;8.916;2023-08-30T13:30:26;19.00;99.90
6843;DHT22;3460;52.028;8.916;2023-08-30T13:32:53;18.90;99.90
6843;DHT22;3460;52.028;8.916;2023-08-30T13:35:20;18.80;99.90
6843;DHT22;3460;52.028;8.916;2023-08-30T13:37:46;18.60;29.60
6843;DHT22;3460;52.028;8.916;2023-08-30T13:40:13;18.50;99.90
6843;DHT22;3460;52.028;8.916;2023-08-30T13:42:40;18.50;99.90
6843;DHT22;3460;52.028;8.916;2023-08-30T13:45:08;18.50;99.90
6843;DHT22;3460;52.028;8.916;2023-08-30T13:47:37;18.40;99.90
6843;DHT22;3460;52.028;8.916;2023-08-30T13:50:05;18.20;99.90
6843;DHT22;3460;52.028;8.916;2023-08-30T13:52:32;18.10;99.90
6843;DHT22;3460;52.028;8.916;2023-08-30T13:54:59;18.00;99.90
6843;DHT22;3460;52.028;8.916;2023-08-30T13:57:26;18.00;99.90
6843;DHT22;3460;52.028;8.916;2023-08-30T13:59:52;18.00;99.90
6843;DHT22;3460;52.028;8.916;2023-08-30T14:02:19;17.90;99.90
6843;DHT22;3460;52.028;8.916;2023-08-30T14:04:47;17.80;99.90
6843;DHT22;3460;52.028;8.916;2023-08-30T14:07:14;17.60;99.90
6843;DHT22;3460;52.028;8.916;2023-08-30T14:09:41;17.70;99.90
6843;DHT22;3460;52.028;8.916;2023-08-30T14:12:08;17.50;99.90
6843;DHT22;3460;52.028;8.916;2023-08-30T14:14:35;17.50;99.90
6843;DHT22;3460;52.028;8.916;2023-08-30T14:17:03;17.40;99.90
6843;DHT22;3460;52.028;8.916;2023-08-30T14:19:29;17.30;99.90
6843;DHT22;3460;52.028;8.916;2023-08-30T14:21:58;17.30;99.90
6843;DHT22;3460;52.028;8.916;2023-08-30T14:24:25;17.20;99.90
6843;DHT22;3460;52.028;8.916;2023-08-30T14:26:52;17.10;99.90
6843;DHT22;3460;52.028;8.916;2023-08-30T14:29:20;17.10;99.90
6843;DHT22;3460;52.028;8.916;2023-08-30T14:31:48;17.10;99.90
6843;DHT22;3460;52.028;8.916;2023-08-30T14:34:14;17.00;99.90
6843;DHT22;3460;52.028;8.916;2023-08-30T14:36:41;16.90;99.90
6843;DHT22;3460;52.028;8.916;2023-08-30T14:39:09;16.80;99.90
6843;DHT22;3460;52.028;8.916;2023-08-30T14:41:36;16.70;99.90
6843;DHT22;3460;52.028;8.916;2023-08-30T14:44:04;16.60;99.90
6843;DHT22;3460;52.028;8.916;2023-08-30T14:46:30;16.40;99.90
6843;DHT22;3460;52.028;8.916;2023-08-30T14:48:57;16.30;99.90
6843;DHT22;3460;52.028;8.916;2023-08-30T14:51:24;16.20;99.90
6843;DHT22;3460;52.028;8.916;2023-08-30T14:53:51;16.20;99.90
6843;DHT22;3460;52.028;8.916;2023-08-30T14:56:19;16.10;99.90
6843;DHT22;3460;52.028;8.916;2023-08-30T14:58:46;16.00;99.90
6843;DHT22;3460;52.028;8.916;2023-08-30T15:01:14;15.90;99.90
6843;DHT22;3460;52.028;8.916;2023-08-30T15:03:41;15.90;99.90
6843;DHT22;3460;52.028;8.916;2023-08-30T15:06:08;15.90;99.90
6843;DHT22;3460;52.028;8.916;2023-08-30T15:08:35;15.90;99.90
6843;DHT22;3460;52.028;8.916;2023-08-30T15:11:02;15.90;99.90
6843;DHT22;3460;52.028;8.916;2023-08-30T15:13:30;15.90;99.90
6843;DHT22;3460;52.028;8.916;2023-08-30T15:15:57;15.80;99.90
6843;DHT22;3460;52.028;8.916;2023-08-30T15:18:24;15.70;99.90
6843;DHT22;3460;52.028;8.916;2023-08-30T15:20:52;15.60;99.90
6843;DHT22;3460;52.028;8.916;2023-08-30T15:23:19;15.70;99.90
6843;DHT22;3460;52.028;8.916;2023-08-30T15:25:46;15.70;99.90
6843;DHT22;3460;52.028;8.916;2023-08-30T15:28:13;15.50;99.90
6843;DHT22;3460;52.028;8.916;2023-08-30T15:30:46;15.40;99.90
6843;DHT22;3460;52.028;8.916;2023-08-30T15:33:16;15.30;99.90
6843;DHT22;3460;52.028;8.916;2023-08-30T15:35:43;15.20;99.90
6843;DHT22;3460;52.028;8.916;2023-08-30T15:38:10;15.20;99.90
6843;DHT22;3460;52.028;8.916;2023-08-30T15:40:37;15.20;99.90
6843;DHT22;3460;52.028;8.916;2023-08-30T15:43:05;15.10;99.90
6843;DHT22;3460;52.028;8.916;2023-08-30T15:45:32;15.00;99.90
6843;DHT22;3460;52.028;8.916;2023-08-30T15:48:00;15.00;99.90
6843;DHT22;3460;52.028;8.916;2023-08-30T15:50:27;15.00;99.90
6843;DHT22;3460;52.028;8.916;2023-08-30T15:52:53;14.90;99.90
6843;DHT22;3460;52.028;8.916;2023-08-30T15:55:20;14.80;99.90
6843;DHT22;3460;52.028;8.916;2023-08-30T15:57:47;14.90;99.90
6843;DHT22;3460;52.028;8.916;2023-08-30T16:00:15;14.90;99.90
6843;DHT22;3460;52.028;8.916;2023-08-30T16:02:42;14.80;99.90
6843;DHT22;3460;52.028;8.916;2023-08-30T16:05:10;14.80;99.90